sensor_id;sensor_type;location;lat;lon;timestamp;temperature;humidity
11838;DHT22;5978;51.020;6.764;2023-03-23T00:00:44;13.20;99.90
11838;DHT22;5978;51.020;6.764;2023-03-23T00:03:09;13.20;99.90
11838;DHT22;5978;51.020;6.764;2023-03-23T00:05:35;13.20;99.90
11838;DHT22;5978;51.020;6.764;2023-03-23T00:08:02;13.20;99.90
11838;DHT22;5978;51.020;6.764;2023-03-23T00:10:28;13.20;99.90
11838;DHT22;5978;51.020;6.764;2023-03-23T00:12:58;13.20;99.90
11838;DHT22;5978;51.020;6.764;2023-03-23T00:15:27;13.20;99.90
11838;DHT22;5978;51.020;6.764;2023-03-23T00:17:59;13.20;99.90
11838;DHT22;5978;51.020;6.764;2023-03-23T00:20:27;13.20;99.90
11838;DHT22;5978;51.020;6.764;2023-03-23T00:22:55;13.20;99.90
11838;DHT22;5978;51.020;6.764;2023-03-23T00:25:25;13.20;99.90
11838;DHT22;5978;51.020;6.764;2023-03-23T00:27:51;13.20;99.90
11838;DHT22;5978;51.020;6.764;2023-03-23T00:30:17;13.10;99.90
11838;DHT22;5978;51.020;6.764;2023-03-23T00:32:43;13.10;99.90
11838;DHT22;5978;51.020;6.764;2023-03-23T00:35:08;13.20;99.90
11838;DHT22;5978;51.020;6.764;2023-03-23T00:37:34;13.20;99.90
11838;DHT22;5978;51.020;6.764;2023-03-23T00:40:01;13.10;99.90
11838;DHT22;5978;51.020;6.764;2023-03-23T00:42:31;13.10;99.90
11838;DHT22;5978;51.020;6.764;2023-03-23T00:45:02;13.10;99.90
11838;DHT22;5978;51.020;6.764;2023-03-23T00:47:27;13.10;99.90
11838;DHT22;5978;51.020;6.764;2023-03-23T00:49:53;13.20;99.90
11838;DHT22;5978;51.020;6.764;2023-03-23T00:52:21;13.10;99.90
11838;DHT22;5978;51.020;6.764;2023-03-23T00:54:47;13.20;99.90
11838;DHT22;5978;51.020;6.764;2023-03-23T00:57:13;13.10;99.90
11838;DHT22;5978;51.020;6.764;2023-03-23T00:59:38;13.10;99.90
11838;DHT22;5978;51.020;6.764;2023-03-23T01:02:04;13.10;99.90
11838;DHT22;5978;51.020;6.764;2023-03-23T01:04:29;13.10;99.90
11838;DHT22;5978;51.020;6.764;2023-03-23T01:06:57;13.10;99.90
11838;DHT22;5978;51.020;6.764;2023-03-23T01:09:23;13.10;99.90
11838;DHT22;5978;51.020;6.764;2023-03-23T01:11:50;13.20;99.90
11838;DHT22;5978;51.020;6.764;2023-03-23T01:14:17;13.20;99.90
11838;DHT22;5978;51.020;6.764;2023-03-23T01:16:43;13.20;99.90
11838;DHT22;5978;51.020;6.764;2023-03-23T01:19:09;13.20;99.90
11838;DHT22;5978;51.020;6.764;2023-03-23T01:21:35;13.10;99.90
11838;DHT22;5978;51.020;6.764;2023-03-23T01:24:01;13.10;99.90
11838;DHT22;5978;51.020;6.764;2023-03-23T01:26:27;13.00;99.90
11838;DHT22;5978;51.020;6.764;2023-03-23T01:28:53;13.10;99.90
11838;DHT22;5978;51.020;6.764;2023-03-23T01:31:22;13.00;99.90
11838;DHT22;5978;51.020;6.764;2023-03-23T01:33:48;12.90;99.90
11838;DHT22;5978;51.020;6.764;2023-03-23T01:36:27;12.80;99.90
11838;DHT22;5978;51.020;6.764;2023-03-23T01:38:54;12.70;99.90
11838;DHT22;5978;51.020;6.764;2023-03-23T01:41:21;12.50;99.90
11838;DHT22;5978;51.020;6.764;2023-03-23T01:44:06;12.40;99.90
11838;DHT22;5978;51.020;6.764;2023-03-23T01:46:34;12.30;99.90
11838;DHT22;5978;51.020;6.764;2023-03-23T01:49:07;12.20;99.90
11838;DHT22;5978;51.020;6.764;2023-03-23T01:51:37;12.10;99.90
11838;DHT22;5978;51.020;6.764;2023-03-23T01:54:06;12.10;99.90
11838;DHT22;5978;51.020;6.764;2023-03-23T01:56:47;12.00;99.90
11838;DHT22;5978;51.020;6.764;2023-03-23T01:59:14;12.00;99.90
11838;DHT22;5978;51.020;6.764;2023-03-23T02:01:41;12.00;99.90
11838;DHT22;5978;51.020;6.764;2023-03-23T02:04:11;11.90;99.90
11838;DHT22;5978;51.020;6.764;2023-03-23T02:06:38;11.90;99.90
11838;DHT22;5978;51.020;6.764;2023-03-23T02:09:04;11.90;99.90
11838;DHT22;5978;51.020;6.764;2023-03-23T02:11:31;11.90;99.90
11838;DHT22;5978;51.020;6.764;2023-03-23T02:13:57;11.90;99.90
11838;DHT22;5978;51.020;6.764;2023-03-23T02:36:16;11.80;99.90
11838;DHT22;5978;51.020;6.764;2023-03-23T02:39:37;11.80;99.90
11838;DHT22;5978;51.020;6.764;2023-03-23T02:41:57;11.70;99.90
11838;DHT22;5978;51.020;6.764;2023-03-23T02:44:26;11.70;99.90
11838;DHT22;5978;51.020;6.764;2023-03-23T02:46:56;11.70;99.90
11838;DHT22;5978;51.020;6.764;2023-03-23T02:49:24;11.70;99.90
11838;DHT22;5978;51.020;6.764;2023-03-23T02:51:51;11.70;99.90
11838;DHT22;5978;51.020;6.764;2023-03-23T02:54:18;11.70;99.90
11838;DHT22;5978;51.020;6.764;2023-03-23T02:56:45;11.80;99.90
11838;DHT22;5978;51.020;6.764;2023-03-23T02:59:11;11.80;99.90
11838;DHT22;5978;51.020;6.764;2023-03-23T03:04:11;11.90;99.90
11838;DHT22;5978;51.020;6.764;2023-03-23T03:09:44;11.90;99.90
11838;DHT22;5978;51.020;6.764;2023-03-23T03:12:40;11.90;99.90
11838;DHT22;5978;51.020;6.764;2023-03-23T03:18:16;12.00;99.90
11838;DHT22;5978;51.020;6.764;2023-03-23T03:20:50;12.00;99.90
11838;DHT22;5978;51.020;6.764;2023-03-23T03:23:21;12.00;99.90
11838;DHT22;5978;51.020;6.764;2023-03-23T03:25:48;12.00;99.90
11838;DHT22;5978;51.020;6.764;2023-03-23T03:28:17;12.10;99.90
11838;DHT22;5978;51.020;6.764;2023-03-23T03:30:49;12.00;99.90
11838;DHT22;5978;51.020;6.764;2023-03-23T03:33:17;12.10;99.90
11838;DHT22;5978;51.020;6.764;2023-03-23T03:35:43;12.10;99.90
11838;DHT22;5978;51.020;6.764;2023-03-23T03:38:11;12.10;99.90
11838;DHT22;5978;51.020;6.764;2023-03-23T03:40:36;12.10;99.90
11838;DHT22;5978;51.020;6.764;2023-03-23T03:43:03;12.10;99.90
11838;DHT22;5978;51.020;6.764;2023-03-23T03:45:29;12.10;99.90
11838;DHT22;5978;51.020;6.764;2023-03-23T03:47:55;12.20;99.90
11838;DHT22;5978;51.020;6.764;2023-03-23T03:50:21;12.20;99.90
11838;DHT22;5978;51.020;6.764;2023-03-23T03:52:46;12.20;99.90
11838;DHT22;5978;51.020;6.764;2023-03-23T03:55:12;12.20;99.90
11838;DHT22;5978;51.020;6.764;2023-03-23T03:57:38;12.20;99.90
11838;DHT22;5978;51.020;6.764;2023-03-23T04:00:06;12.20;99.90
11838;DHT22;5978;51.020;6.764;2023-03-23T04:02:43;12.20;99.90
11838;DHT22;5978;51.020;6.764;2023-03-23T04:05:09;12.20;99.90
11838;DHT22;5978;51.020;6.764;2023-03-23T04:07:36;12.20;99.90
11838;DHT22;5978;51.020;6.764;2023-03-23T04:10:05;12.20;99.90
11838;DHT22;5978;51.020;6.764;2023-03-23T04:12:31;12.20;99.90
11838;DHT22;5978;51.020;6.764;2023-03-23T04:14:57;12.20;99.90
11838;DHT22;5978;51.020;6.764;2023-03-23T04:17:22;12.20;99.90
11838;DHT22;5978;51.020;6.764;2023-03-23T04:19:51;12.20;99.90
11838;DHT22;5978;51.020;6.764;2023-03-23T04:22:17;12.30;99.90
11838;DHT22;5978;51.020;6.764;2023-03-23T04:24:43;12.20;99.90
11838;DHT22;5978;51.020;6.764;2023-03-23T04:27:08;12.20;99.90
11838;DHT22;5978;51.020;6.764;2023-03-23T04:29:34;12.10;99.90
11838;DHT22;5978;51.020;6.764;2023-03-23T04:31:59;12.10;99.90
11838;DHT22;5978;51.020;6.764;2023-03-23T04:34:27;12.00;99.90
11838;DHT22;5978;51.020;6.764;2023-03-23T04:36:52;12.00;99.90
11838;DHT22;5978;51.020;6.764;2023-03-23T04:39:18;11.90;99.90
11838;DHT22;5978;51.020;6.764;2023-03-23T04:41:44;11.90;99.90
11838;DHT22;5978;51.020;6.764;2023-03-23T04:44:11;11.90;99.90
11838;DHT22;5978;51.020;6.764;2023-03-23T04:46:43;11.90;99.90
11838;DHT22;5978;51.020;6.764;2023-03-23T04:49:10;11.90;99.90
11838;DHT22;5978;51.020;6.764;2023-03-23T04:51:36;11.90;99.90
11838;DHT22;5978;51.020;6.764;2023-03-23T04:54:01;11.90;99.90
11838;DHT22;5978;51.020;6.764;2023-03-23T04:56:27;11.90;99.90
11838;DHT22;5978;51.020;6.764;2023-03-23T04:58:52;12.00;99.90
11838;DHT22;5978;51.020;6.764;2023-03-23T05:01:18;12.10;99.90
11838;DHT22;5978;51.020;6.764;2023-03-23T05:03:44;12.10;99.90
11838;DHT22;5978;51.020;6.764;2023-03-23T05:06:10;12.10;99.90
11838;DHT22;5978;51.020;6.764;2023-03-23T05:08:36;12.20;99.90
11838;DHT22;5978;51.020;6.764;2023-03-23T05:11:06;12.30;99.90
11838;DHT22;5978;51.020;6.764;2023-03-23T05:13:32;12.30;99.90
11838;DHT22;5978;51.020;6.764;2023-03-23T05:15:58;12.30;99.90
11838;DHT22;5978;51.020;6.764;2023-03-23T05:18:24;12.40;99.90
11838;DHT22;5978;51.020;6.764;2023-03-23T05:20:51;12.40;99.90
11838;DHT22;5978;51.020;6.764;2023-03-23T05:23:18;12.50;99.90
11838;DHT22;5978;51.020;6.764;2023-03-23T05:25:55;12.50;99.90
11838;DHT22;5978;51.020;6.764;2023-03-23T05:28:21;12.60;99.90
11838;DHT22;5978;51.020;6.764;2023-03-23T05:30:47;12.60;99.90
11838;DHT22;5978;51.020;6.764;2023-03-23T05:33:13;12.60;99.90
11838;DHT22;5978;51.020;6.764;2023-03-23T05:35:39;12.60;99.90
11838;DHT22;5978;51.020;6.764;2023-03-23T05:38:04;12.60;99.90
11838;DHT22;5978;51.020;6.764;2023-03-23T05:40:30;12.70;99.90
11838;DHT22;5978;51.020;6.764;2023-03-23T05:42:56;12.70;99.90
11838;DHT22;5978;51.020;6.764;2023-03-23T05:45:24;12.60;99.90
11838;DHT22;5978;51.020;6.764;2023-03-23T05:47:50;12.70;99.90
11838;DHT22;5978;51.020;6.764;2023-03-23T05:50:16;12.70;99.90
11838;DHT22;5978;51.020;6.764;2023-03-23T05:52:42;12.60;99.90
11838;DHT22;5978;51.020;6.764;2023-03-23T05:55:09;12.60;99.90
11838;DHT22;5978;51.020;6.764;2023-03-23T05:57:35;12.60;99.90
11838;DHT22;5978;51.020;6.764;2023-03-23T06:00:01;12.60;99.90
11838;DHT22;5978;51.020;6.764;2023-03-23T06:02:37;12.60;99.90
11838;DHT22;5978;51.020;6.764;2023-03-23T06:05:02;12.60;99.90
11838;DHT22;5978;51.020;6.764;2023-03-23T06:07:28;12.60;99.90
11838;DHT22;5978;51.020;6.764;2023-03-23T06:09:54;12.60;99.90
11838;DHT22;5978;51.020;6.764;2023-03-23T06:12:19;12.70;99.90
11838;DHT22;5978;51.020;6.764;2023-03-23T06:14:46;12.70;99.90
11838;DHT22;5978;51.020;6.764;2023-03-23T06:17:12;12.70;99.90
11838;DHT22;5978;51.020;6.764;2023-03-23T06:19:37;12.70;99.90
11838;DHT22;5978;51.020;6.764;2023-03-23T06:22:03;12.70;99.90
11838;DHT22;5978;51.020;6.764;2023-03-23T06:24:30;12.70;99.90
11838;DHT22;5978;51.020;6.764;2023-03-23T06:26:56;12.70;99.90
11838;DHT22;5978;51.020;6.764;2023-03-23T06:29:21;12.80;99.90
11838;DHT22;5978;51.020;6.764;2023-03-23T06:31:50;12.80;99.90
11838;DHT22;5978;51.020;6.764;2023-03-23T06:34:16;12.80;99.90
11838;DHT22;5978;51.020;6.764;2023-03-23T06:36:42;12.90;99.90
11838;DHT22;5978;51.020;6.764;2023-03-23T06:39:10;12.80;99.90
11838;DHT22;5978;51.020;6.764;2023-03-23T06:41:36;12.90;99.90
11838;DHT22;5978;51.020;6.764;2023-03-23T06:44:02;12.90;99.90
11838;DHT22;5978;51.020;6.764;2023-03-23T06:46:28;13.00;99.90
11838;DHT22;5978;51.020;6.764;2023-03-23T06:48:54;13.00;99.90
11838;DHT22;5978;51.020;6.764;2023-03-23T06:51:20;13.00;99.90
11838;DHT22;5978;51.020;6.764;2023-03-23T06:53:45;13.00;99.90
11838;DHT22;5978;51.020;6.764;2023-03-23T06:56:11;13.00;99.90
11838;DHT22;5978;51.020;6.764;2023-03-23T06:58:38;13.00;99.90
11838;DHT22;5978;51.020;6.764;2023-03-23T07:01:04;13.00;99.90
11838;DHT22;5978;51.020;6.764;2023-03-23T07:03:30;13.10;99.90
11838;DHT22;5978;51.020;6.764;2023-03-23T07:05:56;13.10;99.90
11838;DHT22;5978;51.020;6.764;2023-03-23T07:08:22;13.10;99.90
11838;DHT22;5978;51.020;6.764;2023-03-23T07:10:51;13.10;99.90
11838;DHT22;5978;51.020;6.764;2023-03-23T07:13:18;13.20;99.90
11838;DHT22;5978;51.020;6.764;2023-03-23T07:15:43;13.10;99.90
11838;DHT22;5978;51.020;6.764;2023-03-23T07:18:09;13.10;99.90
11838;DHT22;5978;51.020;6.764;2023-03-23T07:20:35;13.20;99.90
11838;DHT22;5978;51.020;6.764;2023-03-23T07:23:01;13.30;99.90
11838;DHT22;5978;51.020;6.764;2023-03-23T07:25:27;13.30;99.90
11838;DHT22;5978;51.020;6.764;2023-03-23T07:27:53;13.40;99.90
11838;DHT22;5978;51.020;6.764;2023-03-23T07:30:19;13.40;99.90
11838;DHT22;5978;51.020;6.764;2023-03-23T07:32:45;13.50;99.90
11838;DHT22;5978;51.020;6.764;2023-03-23T07:35:11;13.50;99.90
11838;DHT22;5978;51.020;6.764;2023-03-23T07:37:36;13.50;99.90
11838;DHT22;5978;51.020;6.764;2023-03-23T07:40:03;13.50;99.90
11838;DHT22;5978;51.020;6.764;2023-03-23T07:42:43;13.50;99.90
11838;DHT22;5978;51.020;6.764;2023-03-23T07:45:13;13.60;99.90
11838;DHT22;5978;51.020;6.764;2023-03-23T07:47:39;13.60;99.90
11838;DHT22;5978;51.020;6.764;2023-03-23T07:50:05;13.60;99.90
11838;DHT22;5978;51.020;6.764;2023-03-23T07:52:32;13.60;99.90
11838;DHT22;5978;51.020;6.764;2023-03-23T07:54:58;13.60;99.90
11838;DHT22;5978;51.020;6.764;2023-03-23T07:57:24;13.70;99.90
11838;DHT22;5978;51.020;6.764;2023-03-23T07:59:49;13.70;99.90
11838;DHT22;5978;51.020;6.764;2023-03-23T08:02:15;13.70;99.90
11838;DHT22;5978;51.020;6.764;2023-03-23T08:04:41;13.80;99.90
11838;DHT22;5978;51.020;6.764;2023-03-23T08:07:08;13.80;99.90
11838;DHT22;5978;51.020;6.764;2023-03-23T08:09:33;13.80;99.90
11838;DHT22;5978;51.020;6.764;2023-03-23T08:11:59;13.80;99.90
11838;DHT22;5978;51.020;6.764;2023-03-23T08:14:24;13.90;99.90
11838;DHT22;5978;51.020;6.764;2023-03-23T08:16:53;13.90;99.90
11838;DHT22;5978;51.020;6.764;2023-03-23T08:19:20;13.90;99.90
11838;DHT22;5978;51.020;6.764;2023-03-23T08:21:46;14.00;99.90
11838;DHT22;5978;51.020;6.764;2023-03-23T08:24:12;14.10;99.90
11838;DHT22;5978;51.020;6.764;2023-03-23T08:26:38;14.10;99.90
11838;DHT22;5978;51.020;6.764;2023-03-23T08:29:04;14.10;99.90
11838;DHT22;5978;51.020;6.764;2023-03-23T08:31:31;14.10;99.90
11838;DHT22;5978;51.020;6.764;2023-03-23T08:33:58;14.00;99.90
11838;DHT22;5978;51.020;6.764;2023-03-23T08:36:24;14.20;99.90
11838;DHT22;5978;51.020;6.764;2023-03-23T08:38:49;14.20;99.90
11838;DHT22;5978;51.020;6.764;2023-03-23T08:41:16;14.20;99.90
11838;DHT22;5978;51.020;6.764;2023-03-23T08:43:42;14.30;99.90
11838;DHT22;5978;51.020;6.764;2023-03-23T08:46:09;14.40;99.90
11838;DHT22;5978;51.020;6.764;2023-03-23T08:48:37;14.40;99.90
11838;DHT22;5978;51.020;6.764;2023-03-23T08:51:05;14.50;99.90
11838;DHT22;5978;51.020;6.764;2023-03-23T08:53:31;14.60;99.90
11838;DHT22;5978;51.020;6.764;2023-03-23T08:56:03;14.70;99.90
11838;DHT22;5978;51.020;6.764;2023-03-23T08:58:29;14.60;99.90
11838;DHT22;5978;51.020;6.764;2023-03-23T09:00:55;14.70;99.90
11838;DHT22;5978;51.020;6.764;2023-03-23T09:03:20;14.80;99.90
11838;DHT22;5978;51.020;6.764;2023-03-23T09:05:46;14.90;99.90
11838;DHT22;5978;51.020;6.764;2023-03-23T09:08:12;14.90;99.90
11838;DHT22;5978;51.020;6.764;2023-03-23T09:10:39;14.90;99.90
11838;DHT22;5978;51.020;6.764;2023-03-23T09:13:05;14.90;99.90
11838;DHT22;5978;51.020;6.764;2023-03-23T09:15:32;14.90;99.90
11838;DHT22;5978;51.020;6.764;2023-03-23T09:17:58;14.90;99.90
11838;DHT22;5978;51.020;6.764;2023-03-23T09:20:26;15.00;99.90
11838;DHT22;5978;51.020;6.764;2023-03-23T09:22:54;15.00;99.90
11838;DHT22;5978;51.020;6.764;2023-03-23T09:25:22;15.00;99.90
11838;DHT22;5978;51.020;6.764;2023-03-23T09:27:51;15.00;99.90
11838;DHT22;5978;51.020;6.764;2023-03-23T09:30:27;15.00;99.90
11838;DHT22;5978;51.020;6.764;2023-03-23T09:32:53;14.90;99.90
11838;DHT22;5978;51.020;6.764;2023-03-23T09:35:20;14.80;99.90
11838;DHT22;5978;51.020;6.764;2023-03-23T09:37:48;14.90;99.90
11838;DHT22;5978;51.020;6.764;2023-03-23T09:40:20;15.00;99.90
11838;DHT22;5978;51.020;6.764;2023-03-23T09:45:32;15.00;99.90
11838;DHT22;5978;51.020;6.764;2023-03-23T09:48:32;15.00;99.90
11838;DHT22;5978;51.020;6.764;2023-03-23T09:53:54;15.10;99.90
11838;DHT22;5978;51.020;6.764;2023-03-23T09:56:21;15.00;99.90
11838;DHT22;5978;51.020;6.764;2023-03-23T10:01:45;14.90;99.90
11838;DHT22;5978;51.020;6.764;2023-03-23T10:04:47;14.90;99.90
11838;DHT22;5978;51.020;6.764;2023-03-23T10:09:40;15.20;99.90
11838;DHT22;5978;51.020;6.764;2023-03-23T10:12:27;15.30;99.90
11838;DHT22;5978;51.020;6.764;2023-03-23T10:15:00;15.20;99.90
11838;DHT22;5978;51.020;6.764;2023-03-23T10:18:10;15.00;99.90
11838;DHT22;5978;51.020;6.764;2023-03-23T10:20:49;14.90;99.90
11838;DHT22;5978;51.020;6.764;2023-03-23T10:25:56;14.60;99.90
11838;DHT22;5978;51.020;6.764;2023-03-23T10:28:42;14.60;99.90
11838;DHT22;5978;51.020;6.764;2023-03-23T10:31:13;14.50;99.90
11838;DHT22;5978;51.020;6.764;2023-03-23T10:36:27;14.60;99.90
11838;DHT22;5978;51.020;6.764;2023-03-23T10:41:30;14.80;99.90
11838;DHT22;5978;51.020;6.764;2023-03-23T10:43:56;14.80;99.90
11838;DHT22;5978;51.020;6.764;2023-03-23T10:46:27;14.80;99.90
11838;DHT22;5978;51.020;6.764;2023-03-23T10:48:56;14.90;99.90
11838;DHT22;5978;51.020;6.764;2023-03-23T10:51:29;15.00;99.90
11838;DHT22;5978;51.020;6.764;2023-03-23T10:53:58;15.10;99.90
11838;DHT22;5978;51.020;6.764;2023-03-23T10:56:25;15.40;99.90
11838;DHT22;5978;51.020;6.764;2023-03-23T10:58:51;15.50;99.90
11838;DHT22;5978;51.020;6.764;2023-03-23T11:01:30;15.40;99.90
11838;DHT22;5978;51.020;6.764;2023-03-23T11:03:56;15.50;99.90
11838;DHT22;5978;51.020;6.764;2023-03-23T11:06:27;15.40;99.90
11838;DHT22;5978;51.020;6.764;2023-03-23T11:09:09;15.60;99.90
11838;DHT22;5978;51.020;6.764;2023-03-23T11:11:41;15.70;99.90
11838;DHT22;5978;51.020;6.764;2023-03-23T11:14:24;15.70;99.90
11838;DHT22;5978;51.020;6.764;2023-03-23T11:16:55;15.70;99.90
11838;DHT22;5978;51.020;6.764;2023-03-23T11:19:23;15.70;99.90
11838;DHT22;5978;51.020;6.764;2023-03-23T11:21:55;15.60;99.90
11838;DHT22;5978;51.020;6.764;2023-03-23T11:24:25;15.50;99.90
11838;DHT22;5978;51.020;6.764;2023-03-23T11:26:52;15.60;99.90
11838;DHT22;5978;51.020;6.764;2023-03-23T11:29:24;15.40;99.90
11838;DHT22;5978;51.020;6.764;2023-03-23T11:31:52;15.30;99.90
11838;DHT22;5978;51.020;6.764;2023-03-23T11:34:45;15.20;99.90
11838;DHT22;5978;51.020;6.764;2023-03-23T11:37:31;15.10;99.90
11838;DHT22;5978;51.020;6.764;2023-03-23T11:40:00;15.10;99.90
11838;DHT22;5978;51.020;6.764;2023-03-23T11:42:42;14.80;99.90
11838;DHT22;5978;51.020;6.764;2023-03-23T11:45:22;14.60;99.90
11838;DHT22;5978;51.020;6.764;2023-03-23T11:50:33;14.40;99.90
11838;DHT22;5978;51.020;6.764;2023-03-23T11:58:17;14.90;99.90
11838;DHT22;5978;51.020;6.764;2023-03-23T12:00:55;16.60;99.90
11838;DHT22;5978;51.020;6.764;2023-03-23T12:06:06;18.90;99.90
11838;DHT22;5978;51.020;6.764;2023-03-23T12:08:58;19.50;99.90
11838;DHT22;5978;51.020;6.764;2023-03-23T12:11:32;20.50;99.90
11838;DHT22;5978;51.020;6.764;2023-03-23T12:14:03;20.30;99.90
11838;DHT22;5978;51.020;6.764;2023-03-23T12:19:17;18.80;99.90
11838;DHT22;5978;51.020;6.764;2023-03-23T12:22:09;18.50;99.90
11838;DHT22;5978;51.020;6.764;2023-03-23T12:27:49;17.20;99.90
11838;DHT22;5978;51.020;6.764;2023-03-23T12:30:35;17.00;99.90
11838;DHT22;5978;51.020;6.764;2023-03-23T12:33:33;16.60;99.90
11838;DHT22;5978;51.020;6.764;2023-03-23T12:42:10;18.70;99.90
11838;DHT22;5978;51.020;6.764;2023-03-23T12:44:50;18.90;99.90
11838;DHT22;5978;51.020;6.764;2023-03-23T12:47:39;19.70;99.90
11838;DHT22;5978;51.020;6.764;2023-03-23T12:50:27;20.30;99.90
11838;DHT22;5978;51.020;6.764;2023-03-23T12:53:16;19.50;99.90
11838;DHT22;5978;51.020;6.764;2023-03-23T12:55:51;18.50;99.90
11838;DHT22;5978;51.020;6.764;2023-03-23T12:58:21;18.00;99.90
11838;DHT22;5978;51.020;6.764;2023-03-23T13:00:57;17.30;99.90
11838;DHT22;5978;51.020;6.764;2023-03-23T13:03:41;17.20;99.90
11838;DHT22;5978;51.020;6.764;2023-03-23T13:06:30;17.00;99.90
11838;DHT22;5978;51.020;6.764;2023-03-23T13:09:11;16.70;99.90
11838;DHT22;5978;51.020;6.764;2023-03-23T13:11:40;16.60;99.90
11838;DHT22;5978;51.020;6.764;2023-03-23T13:14:29;16.40;99.90
11838;DHT22;5978;51.020;6.764;2023-03-23T13:28:21;15.80;99.90
11838;DHT22;5978;51.020;6.764;2023-03-23T13:31:15;15.90;99.90
11838;DHT22;5978;51.020;6.764;2023-03-23T13:33:46;15.80;99.90
11838;DHT22;5978;51.020;6.764;2023-03-23T13:36:15;15.70;99.90
11838;DHT22;5978;51.020;6.764;2023-03-23T13:38:48;15.60;99.90
11838;DHT22;5978;51.020;6.764;2023-03-23T13:41:16;15.30;99.90
11838;DHT22;5978;51.020;6.764;2023-03-23T13:43:43;15.20;99.90
11838;DHT22;5978;51.020;6.764;2023-03-23T13:48:45;14.80;99.90
11838;DHT22;5978;51.020;6.764;2023-03-23T13:51:35;14.60;99.90
11838;DHT22;5978;51.020;6.764;2023-03-23T13:54:12;14.70;99.90
11838;DHT22;5978;51.020;6.764;2023-03-23T13:56:47;15.30;99.90
11838;DHT22;5978;51.020;6.764;2023-03-23T13:59:14;15.40;99.90
11838;DHT22;5978;51.020;6.764;2023-03-23T14:01:41;15.60;99.90
11838;DHT22;5978;51.020;6.764;2023-03-23T14:04:15;15.70;99.90
11838;DHT22;5978;51.020;6.764;2023-03-23T14:06:41;16.70;99.90
11838;DHT22;5978;51.020;6.764;2023-03-23T14:09:27;17.10;99.90
11838;DHT22;5978;51.020;6.764;2023-03-23T14:14:33;16.80;99.90
11838;DHT22;5978;51.020;6.764;2023-03-23T14:17:16;17.80;99.90
11838;DHT22;5978;51.020;6.764;2023-03-23T14:19:47;18.30;99.90
11838;DHT22;5978;51.020;6.764;2023-03-23T14:22:25;18.30;99.90
11838;DHT22;5978;51.020;6.764;2023-03-23T14:24:53;18.20;99.90
11838;DHT22;5978;51.020;6.764;2023-03-23T14:27:24;17.90;99.90
11838;DHT22;5978;51.020;6.764;2023-03-23T14:30:03;17.40;99.90
11838;DHT22;5978;51.020;6.764;2023-03-23T14:32:30;16.90;99.90
11838;DHT22;5978;51.020;6.764;2023-03-23T14:34:57;16.70;99.90
11838;DHT22;5978;51.020;6.764;2023-03-23T14:37:24;16.50;99.90
11838;DHT22;5978;51.020;6.764;2023-03-23T14:39:53;16.30;99.90
11838;DHT22;5978;51.020;6.764;2023-03-23T14:42:23;16.10;99.90
11838;DHT22;5978;51.020;6.764;2023-03-23T14:44:51;15.80;99.90
11838;DHT22;5978;51.020;6.764;2023-03-23T14:47:22;15.60;99.90
11838;DHT22;5978;51.020;6.764;2023-03-23T14:49:53;15.10;99.90
11838;DHT22;5978;51.020;6.764;2023-03-23T14:52:22;14.50;99.90
11838;DHT22;5978;51.020;6.764;2023-03-23T14:54:48;14.20;99.90
11838;DHT22;5978;51.020;6.764;2023-03-23T14:57:17;14.20;99.90
11838;DHT22;5978;51.020;6.764;2023-03-23T14:59:45;14.20;99.90
11838;DHT22;5978;51.020;6.764;2023-03-23T15:05:02;14.20;99.90
11838;DHT22;5978;51.020;6.764;2023-03-23T15:07:35;14.10;99.90
11838;DHT22;5978;51.020;6.764;2023-03-23T15:10:04;14.10;99.90
11838;DHT22;5978;51.020;6.764;2023-03-23T15:12:30;14.40;99.90
11838;DHT22;5978;51.020;6.764;2023-03-23T15:15:02;14.60;99.90
11838;DHT22;5978;51.020;6.764;2023-03-23T15:17:30;14.70;99.90
11838;DHT22;5978;51.020;6.764;2023-03-23T15:19:57;14.70;99.90
11838;DHT22;5978;51.020;6.764;2023-03-23T15:22:30;14.90;99.90
11838;DHT22;5978;51.020;6.764;2023-03-23T15:25:11;16.20;99.90
11838;DHT22;5978;51.020;6.764;2023-03-23T15:27:42;17.40;99.90
11838;DHT22;5978;51.020;6.764;2023-03-23T15:30:18;18.70;99.90
11838;DHT22;5978;51.020;6.764;2023-03-23T15:32:54;20.20;99.90
11838;DHT22;5978;51.020;6.764;2023-03-23T15:35:24;20.90;99.90
11838;DHT22;5978;51.020;6.764;2023-03-23T15:37:58;20.40;99.90
11838;DHT22;5978;51.020;6.764;2023-03-23T15:40:26;19.40;99.90
11838;DHT22;5978;51.020;6.764;2023-03-23T15:45:32;18.00;99.90
11838;DHT22;5978;51.020;6.764;2023-03-23T15:48:09;17.80;99.90
11838;DHT22;5978;51.020;6.764;2023-03-23T15:50:35;18.40;99.90
11838;DHT22;5978;51.020;6.764;2023-03-23T15:55:43;18.60;99.90
11838;DHT22;5978;51.020;6.764;2023-03-23T15:58:11;18.90;99.90
11838;DHT22;5978;51.020;6.764;2023-03-23T16:00:37;19.00;99.90
11838;DHT22;5978;51.020;6.764;2023-03-23T16:03:05;18.40;99.90
11838;DHT22;5978;51.020;6.764;2023-03-23T16:05:32;17.70;99.90
11838;DHT22;5978;51.020;6.764;2023-03-23T16:07:58;17.30;99.90
11838;DHT22;5978;51.020;6.764;2023-03-23T16:10:26;16.90;99.90
11838;DHT22;5978;51.020;6.764;2023-03-23T16:12:51;16.70;99.90
11838;DHT22;5978;51.020;6.764;2023-03-23T16:15:17;16.50;99.90
11838;DHT22;5978;51.020;6.764;2023-03-23T16:17:43;16.50;99.90
11838;DHT22;5978;51.020;6.764;2023-03-23T16:20:16;16.70;99.90
11838;DHT22;5978;51.020;6.764;2023-03-23T16:22:42;17.00;99.90
11838;DHT22;5978;51.020;6.764;2023-03-23T16:25:08;17.20;99.90
11838;DHT22;5978;51.020;6.764;2023-03-23T16:27:35;17.20;99.90
11838;DHT22;5978;51.020;6.764;2023-03-23T16:30:01;16.80;99.90
11838;DHT22;5978;51.020;6.764;2023-03-23T16:32:28;16.60;99.90
11838;DHT22;5978;51.020;6.764;2023-03-23T16:34:53;16.40;99.90
11838;DHT22;5978;51.020;6.764;2023-03-23T16:37:19;16.20;99.90
11838;DHT22;5978;51.020;6.764;2023-03-23T16:39:45;16.10;99.90
11838;DHT22;5978;51.020;6.764;2023-03-23T16:42:11;16.10;99.90
11838;DHT22;5978;51.020;6.764;2023-03-23T16:44:36;16.10;99.90
11838;DHT22;5978;51.020;6.764;2023-03-23T16:47:02;16.10;99.90
11838;DHT22;5978;51.020;6.764;2023-03-23T16:49:27;16.00;99.90
11838;DHT22;5978;51.020;6.764;2023-03-23T16:51:53;15.90;99.90
11838;DHT22;5978;51.020;6.764;2023-03-23T16:54:18;15.90;99.90
11838;DHT22;5978;51.020;6.764;2023-03-23T16:56:44;15.80;99.90
11838;DHT22;5978;51.020;6.764;2023-03-23T16:59:12;15.80;99.90
11838;DHT22;5978;51.020;6.764;2023-03-23T17:01:37;15.80;99.90
11838;DHT22;5978;51.020;6.764;2023-03-23T17:04:03;15.70;99.90
11838;DHT22;5978;51.020;6.764;2023-03-23T17:06:29;15.70;99.90
11838;DHT22;5978;51.020;6.764;2023-03-23T17:08:55;15.60;99.90
11838;DHT22;5978;51.020;6.764;2023-03-23T17:11:21;15.50;99.90
11838;DHT22;5978;51.020;6.764;2023-03-23T17:13:47;15.50;99.90
11838;DHT22;5978;51.020;6.764;2023-03-23T17:16:13;15.40;99.90
11838;DHT22;5978;51.020;6.764;2023-03-23T17:18:38;15.30;99.90
11838;DHT22;5978;51.020;6.764;2023-03-23T17:21:04;15.30;99.90
11838;DHT22;5978;51.020;6.764;2023-03-23T17:23:31;15.20;99.90
11838;DHT22;5978;51.020;6.764;2023-03-23T17:25:57;15.20;99.90
11838;DHT22;5978;51.020;6.764;2023-03-23T17:28:23;15.10;99.90
11838;DHT22;5978;51.020;6.764;2023-03-23T17:30:50;15.10;99.90
11838;DHT22;5978;51.020;6.764;2023-03-23T17:33:16;15.00;99.90